This is the latest recevied weather packets stored in our database for station/object N8TWM-13. If no packets are shown the sender has not sent any weather packets the latest 1 day(s).
| Time | Temp. | Humidity | Pressure | Rain* | Wind** | Luminosity | Snow |
|---|---|---|---|---|---|---|---|
| 1778008109 | 16.67° C | 82% | 1008.1 hPa | 0 mm | 0 m/s | 76 W/m² | - |
| 1778007804 | 16.67° C | 82% | 1008.1 hPa | 0 mm | 0 m/s | 162 W/m² | - |
| 1778007500 | 17.22° C | 81% | 1008.1 hPa | 0 mm | 0.89 m/s, 262° | 168 W/m² | - |
| 1778007197 | 17.78° C | 81% | 1008.4 hPa | 0 mm | 0 m/s | 233 W/m² | - |
| 1778006893 | 17.78° C | 80% | 1008.5 hPa | 0 mm | 0 m/s | 285 W/m² | - |
| 1778006590 | 17.78° C | 81% | 1008.3 hPa | 0 mm | 0 m/s | 278 W/m² | - |
| 1778006287 | 17.22° C | 81% | 1008.3 hPa | 0 mm | 0 m/s | 287 W/m² | - |
| 1778005984 | 17.22° C | 82% | 1008.1 hPa | 1.27 mm | 0.45 m/s, 249° | 239 W/m² | - |
| 1778005681 | 17.22° C | 80% | 1008.4 hPa | 1.27 mm | 2.24 m/s, 237° | 95 W/m² | - |
| 1778005377 | 18.33° C | 77% | 1008.3 hPa | 1.27 mm | 0.89 m/s, 259° | 38 W/m² | - |
| 1778005074 | 18.89° C | 73% | 1008.3 hPa | 0 mm | 0 m/s | 23 W/m² | - |
| 1778004772 | 18.89° C | 72% | 1008.3 hPa | 0 mm | 0 m/s | 71 W/m² | - |
| 1778004468 | 20° C | 70% | 1008.4 hPa | 0 mm | 0 m/s | 275 W/m² | - |
| 1778004164 | 18.89° C | 71% | 1008.5 hPa | 0 mm | 0 m/s | 445 W/m² | - |
| 1778003861 | 18.33° C | 74% | 1008.3 hPa | 0 mm | 0 m/s | 424 W/m² | - |
| 1778003557 | 17.78° C | 74% | 1008.5 hPa | 0 mm | 0 m/s | 92 W/m² | - |
| 1778003254 | 17.78° C | 73% | 1008.6 hPa | 0 mm | 1.79 m/s, 219° | 53 W/m² | - |
| 1778002951 | 18.33° C | 74% | 1008.4 hPa | 0 mm | 0 m/s | 62 W/m² | - |
| 1778002647 | 18.33° C | 74% | 1008.5 hPa | 0 mm | 0 m/s | 74 W/m² | - |
| 1778002344 | 18.33° C | 74% | 1008.4 hPa | 0 mm | 0 m/s | 108 W/m² | - |
| 1778002041 | 18.33° C | 74% | 1008.6 hPa | 0 mm | 0.89 m/s, 267° | 128 W/m² | - |
| 1778001738 | 17.78° C | 74% | 1008.1 hPa | 0 mm | 0.45 m/s, 241° | 127 W/m² | - |
| 1778001433 | 17.78° C | 74% | 1008.5 hPa | 0 mm | 0.45 m/s, 244° | 75 W/m² | - |
| 1778001130 | 17.78° C | 74% | 1008.5 hPa | 0 mm | 0.89 m/s, 245° | 120 W/m² | - |
| 1778000827 | 17.78° C | 75% | 1008.9 hPa | 0 mm | 1.34 m/s, 258° | 75 W/m² | - |
* Rain latest hour (hover to see other rain measurements)
** Current wind speed in m/s (hover to see current wind gust speed)